createdAt,value
2023-02-22T00:00:20.984Z,99.99
2023-02-22T00:01:20.971Z,99.99
2023-02-22T00:02:21.100Z,99.99
2023-02-22T00:03:20.910Z,99.99
2023-02-22T00:04:20.975Z,99.99
2023-02-22T00:05:20.886Z,99.99
2023-02-22T00:06:20.898Z,99.99
2023-02-22T00:07:20.878Z,99.99
2023-02-22T00:08:20.925Z,99.99
2023-02-22T00:09:20.878Z,99.99
2023-02-22T00:10:20.845Z,99.99
2023-02-22T00:11:20.837Z,99.99
2023-02-22T00:12:20.815Z,99.99
2023-02-22T00:13:20.811Z,99.99
2023-02-22T00:14:20.843Z,99.99
2023-02-22T00:15:20.750Z,99.99
2023-02-22T00:16:20.823Z,99.99
2023-02-22T00:17:20.726Z,99.99
2023-02-22T00:18:20.743Z,99.99
2023-02-22T00:19:20.718Z,99.99
2023-02-22T00:20:20.753Z,99.99
2023-02-22T00:21:20.696Z,99.99
2023-02-22T00:22:20.702Z,99.99
2023-02-22T00:23:20.643Z,99.99
2023-02-22T00:24:20.643Z,99.99
2023-02-22T00:25:20.631Z,99.99
2023-02-22T00:26:20.761Z,99.99
2023-02-22T00:27:20.592Z,99.99
2023-02-22T00:28:20.632Z,99.99
2023-02-22T00:29:20.557Z,99.99
2023-02-22T00:30:20.675Z,99.99
2023-02-22T00:31:20.880Z,99.99
2023-02-22T00:32:20.700Z,99.99
2023-02-22T00:33:20.538Z,99.99
2023-02-22T00:34:20.497Z,99.99
2023-02-22T00:35:20.542Z,99.99
2023-02-22T00:36:20.485Z,99.99
2023-02-22T00:37:20.493Z,99.99
2023-02-22T00:38:20.575Z,99.99
2023-02-22T00:39:20.481Z,99.99
2023-02-22T00:40:20.465Z,99.99
2023-02-22T00:41:20.501Z,99.99
2023-02-22T00:42:20.397Z,99.99
2023-02-22T00:43:20.433Z,99.99
2023-02-22T00:44:20.381Z,99.99
2023-02-22T00:45:20.393Z,99.99
2023-02-22T00:46:20.402Z,99.99
2023-02-22T00:47:20.337Z,99.99
2023-02-22T00:48:20.336Z,99.99
2023-02-22T00:49:20.367Z,99.99
2023-02-22T00:50:20.353Z,99.99
2023-02-22T00:51:20.341Z,99.99
2023-02-22T00:52:20.239Z,99.99
2023-02-22T00:53:20.279Z,99.99
2023-02-22T00:54:20.246Z,99.99
2023-02-22T00:55:20.234Z,99.99
2023-02-22T00:56:20.302Z,99.99
2023-02-22T00:57:20.230Z,99.99
2023-02-22T00:58:20.202Z,99.99
2023-02-22T00:59:20.173Z,99.99
2023-02-22T01:00:20.172Z,99.99
2023-02-22T01:01:20.206Z,99.99
2023-02-22T01:02:20.273Z,99.99
2023-02-22T01:03:20.144Z,99.99
2023-02-22T01:04:20.094Z,99.99
2023-02-22T01:05:20.132Z,99.99
2023-02-22T01:06:20.091Z,99.99
2023-02-22T01:07:20.066Z,99.99
2023-02-22T01:08:20.098Z,99.99
2023-02-22T01:09:20.030Z,99.99
2023-02-22T01:10:19.999Z,99.99
2023-02-22T01:11:20.036Z,99.99
2023-02-22T01:12:19.998Z,99.99
2023-02-22T01:13:19.991Z,99.99
2023-02-22T01:14:19.982Z,99.99
2023-02-22T01:15:19.974Z,99.99
2023-02-22T01:16:19.943Z,99.99
2023-02-22T01:17:19.963Z,99.99
2023-02-22T01:18:19.905Z,99.99
2023-02-22T01:19:19.916Z,99.99
2023-02-22T01:20:20.035Z,99.99
2023-02-22T01:21:19.870Z,99.99
2023-02-22T01:22:19.852Z,99.99
2023-02-22T01:23:19.870Z,99.99
2023-02-22T01:24:19.802Z,99.99
2023-02-22T01:25:19.838Z,99.99
2023-02-22T01:26:19.839Z,99.99
2023-02-22T01:27:19.808Z,99.99
2023-02-22T01:28:19.743Z,99.99
2023-02-22T01:29:19.789Z,99.99
2023-02-22T01:30:19.775Z,99.99
2023-02-22T01:31:20.157Z,99.99
2023-02-22T01:32:19.769Z,99.99
2023-02-22T01:33:19.716Z,99.99
2023-02-22T01:34:19.666Z,99.99
2023-02-22T01:35:19.733Z,99.99
2023-02-22T01:36:19.641Z,99.99
2023-02-22T01:37:19.678Z,99.99
2023-02-22T01:38:19.749Z,99.99
2023-02-22T01:39:19.625Z,99.99
2023-02-22T01:40:19.609Z,99.99
2023-02-22T01:41:19.608Z,99.99
2023-02-22T01:42:19.554Z,99.99
2023-02-22T01:43:19.590Z,99.99
2023-02-22T01:44:19.619Z,99.99
2023-02-22T01:45:19.532Z,99.99
2023-02-22T01:46:19.554Z,99.99
2023-02-22T01:47:19.529Z,99.99
2023-02-22T01:48:19.502Z,99.99
2023-02-22T01:49:19.493Z,99.99
2023-02-22T01:50:20.246Z,99.99
2023-02-22T01:51:19.600Z,99.99
2023-02-22T01:52:19.495Z,99.99
2023-02-22T01:53:19.693Z,99.99
2023-02-22T01:54:19.435Z,99.99
2023-02-22T01:55:19.411Z,99.99
2023-02-22T01:56:19.525Z,99.99
2023-02-22T01:57:19.370Z,99.99
2023-02-22T01:58:19.391Z,99.99
2023-02-22T01:59:19.325Z,99.99
2023-02-22T02:00:19.356Z,99.99
2023-02-22T02:01:19.597Z,99.99
2023-02-22T02:02:19.393Z,99.99
2023-02-22T02:03:19.265Z,99.99
2023-02-22T02:04:19.314Z,99.99
2023-02-22T02:05:19.317Z,99.99
2023-02-22T02:06:19.256Z,99.99
2023-02-22T02:07:19.254Z,99.99
2023-02-22T02:08:19.280Z,99.99
2023-02-22T02:09:19.243Z,99.99
2023-02-22T02:10:19.242Z,99.99
2023-02-22T02:11:19.201Z,99.99
2023-02-22T02:12:19.205Z,99.99
2023-02-22T02:13:19.142Z,99.99
2023-02-22T02:14:19.280Z,99.99
2023-02-22T02:15:19.151Z,99.99
2023-02-22T02:16:19.168Z,99.99
2023-02-22T02:17:19.102Z,99.99
2023-02-22T02:18:19.121Z,99.99
2023-02-22T02:19:19.093Z,99.99
2023-02-22T02:20:19.113Z,99.99
2023-02-22T02:21:19.073Z,99.99
2023-02-22T02:22:19.069Z,99.99
2023-02-22T02:23:19.030Z,99.99
2023-02-22T02:24:19.054Z,99.99
2023-02-22T02:25:19.014Z,99.99
2023-02-22T02:26:19.111Z,99.99
2023-02-22T02:27:18.981Z,99.99
2023-02-22T02:28:18.997Z,99.99
2023-02-22T02:29:18.977Z,99.99
2023-02-22T02:30:18.979Z,99.99
2023-02-22T02:31:19.225Z,99.99
2023-02-22T02:32:19.088Z,99.99
2023-02-22T02:33:18.894Z,99.99
2023-02-22T02:34:18.944Z,99.99
2023-02-22T02:35:18.837Z,99.99
2023-02-22T02:36:18.880Z,99.99
2023-02-22T02:37:18.814Z,99.99
2023-02-22T02:38:18.889Z,99.99
2023-02-22T02:39:18.816Z,99.99
2023-02-22T02:40:18.848Z,99.99
2023-02-22T02:41:19.037Z,99.99
2023-02-22T02:42:18.798Z,99.99
2023-02-22T02:43:18.743Z,99.99
2023-02-22T02:44:18.801Z,99.99
2023-02-22T02:45:18.720Z,99.99
2023-02-22T02:46:18.734Z,99.99
2023-02-22T02:47:18.776Z,99.99
2023-02-22T02:48:18.703Z,99.99
2023-02-22T02:49:18.680Z,99.99
2023-02-22T02:50:18.831Z,99.99
2023-02-22T02:51:18.797Z,99.99
2023-02-22T02:52:18.666Z,99.99
2023-02-22T02:53:18.613Z,99.99
2023-02-22T02:54:18.615Z,99.99
2023-02-22T02:55:18.599Z,99.99
2023-02-22T02:56:18.615Z,99.99
2023-02-22T02:57:18.570Z,99.99
2023-02-22T02:58:18.593Z,99.99
2023-02-22T02:59:18.520Z,99.99
2023-02-22T03:00:18.581Z,99.99
2023-02-22T03:01:18.860Z,99.99
2023-02-22T03:02:18.537Z,99.99
2023-02-22T03:03:18.485Z,99.99
2023-02-22T03:04:18.505Z,99.99
2023-02-22T03:05:18.466Z,99.99
2023-02-22T03:06:18.460Z,99.99
2023-02-22T03:07:18.526Z,99.99
2023-02-22T03:08:18.569Z,99.99
2023-02-22T03:09:18.438Z,99.99
2023-02-22T03:10:18.439Z,99.99
2023-02-22T03:11:18.768Z,99.99
2023-02-22T03:12:18.397Z,99.99
2023-02-22T03:13:18.331Z,99.99
2023-02-22T03:14:18.480Z,99.99
2023-02-22T03:15:18.327Z,99.99
2023-02-22T03:16:18.374Z,99.99
2023-02-22T03:17:18.298Z,99.99
2023-02-22T03:18:18.321Z,99.99
2023-02-22T03:19:18.242Z,99.99
2023-02-22T03:20:18.283Z,99.99
2023-02-22T03:21:18.577Z,99.99
2023-02-22T03:22:18.286Z,99.99
2023-02-22T03:23:18.196Z,99.99
2023-02-22T03:24:18.265Z,99.99
2023-02-22T03:25:18.170Z,99.99
2023-02-22T03:26:18.217Z,99.99
2023-02-22T03:27:18.165Z,99.99
2023-02-22T03:28:18.159Z,99.99
2023-02-22T03:29:18.152Z,99.99
2023-02-22T03:30:18.164Z,99.99
2023-02-22T03:31:18.403Z,99.99
2023-02-22T03:32:18.281Z,99.99
2023-02-22T03:33:18.063Z,99.99
2023-02-22T03:34:18.096Z,99.99
2023-02-22T03:35:18.063Z,99.99
2023-02-22T03:36:18.082Z,99.99
2023-02-22T03:37:18.013Z,99.99
2023-02-22T03:38:18.042Z,99.99
2023-02-22T03:39:18.004Z,99.99
2023-02-22T03:40:18.002Z,99.99
2023-02-22T03:41:18.254Z,99.99
2023-02-22T03:42:17.991Z,99.99
2023-02-22T03:43:17.922Z,99.99
2023-02-22T03:44:17.989Z,99.99
2023-02-22T03:45:17.882Z,99.99
2023-02-22T03:46:17.932Z,99.99
2023-02-22T03:47:17.898Z,99.99
2023-02-22T03:48:17.882Z,99.99
2023-02-22T03:49:17.861Z,99.99
2023-02-22T03:50:18.015Z,99.99
2023-02-22T03:51:18.237Z,99.99
2023-02-22T03:52:17.859Z,99.99
2023-02-22T03:53:17.784Z,99.99
2023-02-22T03:54:17.802Z,99.99
2023-02-22T03:55:17.808Z,99.99
2023-02-22T03:56:17.877Z,99.99
2023-02-22T03:57:17.762Z,99.99
2023-02-22T03:58:17.792Z,99.99
2023-02-22T03:59:17.712Z,99.99
2023-02-22T04:00:17.754Z,99.99
2023-02-22T04:01:17.939Z,99.99
2023-02-22T04:02:17.728Z,99.99
2023-02-22T04:03:17.719Z,99.99
2023-02-22T04:04:17.704Z,99.99
2023-02-22T04:05:17.663Z,99.99
2023-02-22T04:06:17.666Z,99.99
2023-02-22T04:07:17.599Z,99.99
2023-02-22T04:08:17.730Z,99.99
2023-02-22T04:09:17.595Z,99.99
2023-02-22T04:10:17.611Z,99.99
2023-02-22T04:11:17.787Z,99.99
2023-02-22T04:12:17.589Z,99.99
2023-02-22T04:13:17.512Z,99.99
2023-02-22T04:14:17.572Z,99.99
2023-02-22T04:15:17.534Z,99.99
2023-02-22T04:16:17.539Z,99.99
2023-02-22T04:17:17.498Z,99.99
2023-02-22T04:18:17.529Z,99.99
2023-02-22T04:19:17.453Z,99.99
2023-02-22T04:20:17.507Z,99.99
2023-02-22T04:21:17.820Z,99.99
2023-02-22T04:22:17.427Z,99.99
2023-02-22T04:23:17.410Z,99.99
2023-02-22T04:24:17.421Z,99.99
2023-02-22T04:25:17.355Z,99.99
2023-02-22T04:26:17.414Z,99.99
2023-02-22T04:27:17.364Z,99.99
2023-02-22T04:28:17.337Z,99.99
2023-02-22T04:29:17.326Z,99.99
2023-02-22T04:30:17.358Z,99.99
2023-02-22T04:31:17.613Z,99.99
2023-02-22T04:32:17.393Z,99.99
2023-02-22T04:33:17.253Z,99.99
2023-02-22T04:34:17.257Z,99.99
2023-02-22T04:35:17.263Z,99.99
2023-02-22T04:36:17.231Z,99.99
2023-02-22T04:37:17.234Z,99.99
2023-02-22T04:38:17.263Z,99.99
2023-02-22T04:39:17.182Z,99.99
2023-02-22T04:40:17.179Z,99.99
2023-02-22T04:41:17.431Z,99.99
2023-02-22T04:42:17.176Z,99.99
2023-02-22T04:43:17.150Z,99.99
2023-02-22T04:44:17.264Z,99.99
2023-02-22T04:45:17.111Z,99.99
2023-02-22T04:46:17.154Z,99.99
2023-02-22T04:47:17.079Z,99.99
2023-02-22T04:48:17.063Z,99.99
2023-02-22T04:49:17.052Z,99.99
2023-02-22T04:50:17.096Z,99.99
2023-02-22T04:51:17.207Z,99.99
2023-02-22T04:52:17.042Z,99.99
2023-02-22T04:53:16.984Z,99.99
2023-02-22T04:54:16.993Z,99.99
2023-02-22T04:55:16.975Z,99.99
2023-02-22T04:56:17.072Z,99.99
2023-02-22T04:57:16.949Z,99.99
2023-02-22T04:58:16.981Z,99.99
2023-02-22T04:59:16.904Z,99.99
2023-02-22T05:00:16.950Z,99.99
2023-02-22T05:01:17.238Z,99.99
2023-02-22T05:02:16.969Z,99.99
2023-02-22T05:03:16.861Z,99.99
2023-02-22T05:04:16.855Z,99.99
2023-02-22T05:05:16.832Z,99.99
2023-02-22T05:06:16.862Z,99.99
2023-02-22T05:07:16.785Z,99.99
2023-02-22T05:08:16.949Z,99.99
2023-02-22T05:09:16.757Z,99.99
2023-02-22T05:10:16.777Z,99.99
2023-02-22T05:11:17.046Z,99.99
2023-02-22T05:12:16.779Z,99.99
2023-02-22T05:13:16.716Z,99.99
2023-02-22T05:14:16.837Z,99.99
2023-02-22T05:15:16.708Z,99.99
2023-02-22T05:16:16.779Z,99.99
2023-02-22T05:17:16.677Z,99.99
2023-02-22T05:18:16.701Z,99.99
2023-02-22T05:19:16.626Z,99.99
2023-02-22T05:20:18.354Z,99.99
2023-02-22T05:21:16.952Z,99.99
2023-02-22T05:22:16.618Z,99.99
2023-02-22T05:23:16.588Z,99.99
2023-02-22T05:24:16.589Z,99.99
2023-02-22T05:25:16.569Z,99.99
2023-02-22T05:26:16.609Z,99.99
2023-02-22T05:27:16.530Z,99.99
2023-02-22T05:28:16.524Z,99.99
2023-02-22T05:29:16.508Z,99.99
2023-02-22T05:30:16.541Z,99.99
2023-02-22T05:31:16.864Z,99.99
2023-02-22T05:32:16.630Z,99.99
2023-02-22T05:33:16.453Z,99.99
2023-02-22T05:34:16.444Z,99.99
2023-02-22T05:35:16.430Z,99.99
2023-02-22T05:36:16.417Z,99.99
2023-02-22T05:37:16.396Z,99.99
2023-02-22T05:38:16.545Z,99.99
2023-02-22T05:39:16.367Z,99.99
2023-02-22T05:40:16.393Z,99.99
2023-02-22T05:41:16.688Z,99.99
2023-02-22T05:42:16.349Z,99.99
2023-02-22T05:43:16.356Z,99.99
2023-02-22T05:44:16.457Z,99.99
2023-02-22T05:45:16.269Z,99.99
2023-02-22T05:46:16.321Z,99.99
2023-02-22T05:47:16.266Z,99.99
2023-02-22T05:48:16.262Z,99.99
2023-02-22T05:49:16.251Z,99.99
2023-02-22T05:50:16.332Z,99.99
2023-02-22T05:51:16.427Z,99.99
2023-02-22T05:52:16.227Z,99.99
2023-02-22T05:53:16.168Z,99.99
2023-02-22T05:54:16.183Z,99.99
2023-02-22T05:55:16.150Z,99.99
2023-02-22T05:56:16.193Z,99.99
2023-02-22T05:57:16.147Z,99.99
2023-02-22T05:59:27.177Z,99.99
2023-02-22T06:00:27.121Z,99.99
2023-02-22T06:01:27.179Z,99.99
2023-02-22T06:02:27.055Z,99.99
2023-02-22T06:03:27.120Z,99.99
2023-02-22T06:04:27.056Z,99.99
2023-02-22T06:05:27.097Z,99.99
2023-02-22T06:06:27.023Z,99.99
2023-02-22T06:07:27.114Z,99.99
2023-02-22T06:08:26.970Z,99.99
2023-02-22T06:09:27.025Z,99.99
2023-02-22T06:10:27.019Z,99.99
2023-02-22T06:11:26.959Z,99.99
2023-02-22T06:12:26.911Z,99.99
2023-02-22T06:13:27.006Z,99.99
2023-02-22T06:14:26.895Z,99.99
2023-02-22T06:15:26.952Z,99.99
2023-02-22T06:16:26.932Z,99.99
2023-02-22T06:17:26.886Z,99.99
2023-02-22T06:18:26.878Z,99.99
2023-02-22T06:19:26.899Z,99.99
2023-02-22T06:20:26.824Z,99.99
2023-02-22T06:21:26.850Z,99.99
2023-02-22T06:22:26.810Z,99.99
2023-02-22T06:23:26.870Z,99.99
2023-02-22T06:24:26.786Z,99.99
2023-02-22T06:25:26.808Z,99.99
2023-02-22T06:26:26.742Z,99.99
2023-02-22T06:27:26.776Z,99.99
2023-02-22T06:28:26.737Z,99.99
2023-02-22T06:29:26.727Z,99.99
2023-02-22T06:30:26.732Z,99.99
2023-02-22T06:31:26.780Z,99.99
2023-02-22T06:32:26.708Z,99.99
2023-02-22T06:33:26.717Z,99.99
2023-02-22T06:34:26.631Z,99.99
2023-02-22T06:35:26.677Z,99.99
2023-02-22T06:36:26.638Z,99.99
2023-02-22T06:37:26.717Z,99.99
2023-02-22T06:38:27.802Z,99.99
2023-02-22T06:39:26.627Z,99.99
2023-02-22T06:40:26.573Z,99.99
2023-02-22T06:41:26.591Z,99.99
2023-02-22T06:42:26.611Z,99.99
2023-02-22T06:43:26.562Z,99.99
2023-02-22T06:44:26.502Z,99.99
2023-02-22T06:45:26.613Z,99.99
2023-02-22T06:46:26.463Z,99.99
2023-02-22T06:47:26.534Z,99.99
2023-02-22T06:48:26.480Z,99.99
2023-02-22T06:49:26.485Z,99.99
2023-02-22T06:50:26.460Z,99.99
2023-02-22T06:51:26.433Z,99.99
2023-02-22T06:52:26.403Z,99.99
2023-02-22T06:53:26.441Z,99.99
2023-02-22T06:54:26.364Z,99.99
2023-02-22T06:55:26.446Z,99.99
2023-02-22T06:56:26.370Z,99.99
2023-02-22T06:57:26.363Z,99.99
2023-02-22T06:58:26.351Z,99.99
2023-02-22T06:59:26.342Z,99.99
2023-02-22T07:00:26.300Z,99.99
2023-02-22T07:01:26.363Z,99.99
2023-02-22T07:02:26.276Z,99.99
2023-02-22T07:03:26.395Z,99.99
2023-02-22T07:04:26.265Z,99.99
2023-02-22T07:05:26.280Z,99.99
2023-02-22T07:06:26.262Z,99.99
2023-02-22T07:07:26.348Z,99.99
2023-02-22T07:08:26.191Z,99.99
2023-02-22T07:09:26.230Z,99.99
2023-02-22T07:10:26.188Z,99.99
2023-02-22T07:11:26.217Z,99.99
2023-02-22T07:12:26.160Z,99.99
2023-02-22T07:13:26.282Z,99.99
2023-02-22T07:14:26.117Z,99.99
2023-02-22T07:15:26.183Z,99.99
2023-02-22T07:16:26.144Z,99.99
2023-02-22T07:17:26.107Z,99.99
2023-02-22T07:18:26.108Z,99.99
2023-02-22T07:19:26.116Z,99.99
2023-02-22T07:20:26.066Z,99.99
2023-02-22T07:21:26.094Z,99.99
2023-02-22T07:22:26.019Z,99.99
2023-02-22T07:23:26.070Z,99.99
2023-02-22T07:24:26.012Z,99.99
2023-02-22T07:25:26.121Z,99.99
2023-02-22T07:26:25.985Z,99.99
2023-02-22T07:27:25.974Z,99.99
2023-02-22T07:28:25.941Z,99.99
2023-02-22T07:29:25.976Z,99.99
2023-02-22T07:30:26.085Z,99.99
2023-02-22T07:31:26.688Z,99.99
2023-02-22T07:32:25.965Z,99.99
2023-02-22T07:33:25.926Z,99.99
2023-02-22T07:34:25.868Z,99.99
2023-02-22T07:35:25.928Z,99.99
2023-02-22T07:36:25.860Z,99.99
2023-02-22T07:37:25.977Z,99.99
2023-02-22T07:38:25.843Z,99.99
2023-02-22T07:39:25.824Z,99.99
2023-02-22T07:40:25.802Z,99.99
2023-02-22T07:41:25.813Z,99.99
2023-02-22T07:42:25.747Z,99.99
2023-02-22T07:43:25.831Z,99.99
2023-02-22T07:44:25.771Z,99.99
2023-02-22T07:45:25.745Z,99.99
2023-02-22T07:46:25.695Z,99.99
2023-02-22T07:47:25.746Z,99.99
2023-02-22T07:48:25.728Z,99.99
2023-02-22T07:49:25.742Z,99.99
2023-02-22T07:50:25.682Z,99.99
2023-02-22T07:51:25.685Z,99.99
2023-02-22T07:52:25.618Z,99.99
2023-02-22T07:53:27.799Z,99.99
2023-02-22T07:54:25.591Z,99.99
2023-02-22T07:55:25.663Z,99.99
2023-02-22T07:56:25.588Z,99.99
2023-02-22T07:57:25.578Z,99.99
2023-02-22T07:58:25.583Z,99.99
2023-02-22T07:59:25.572Z,99.99
2023-02-22T08:00:25.554Z,99.99
2023-02-22T08:01:25.586Z,99.99
2023-02-22T08:02:25.594Z,99.99
2023-02-22T08:03:25.523Z,99.99
2023-02-22T08:04:25.511Z,99.99
2023-02-22T08:05:25.501Z,99.99
2023-02-22T08:06:25.469Z,99.99
2023-02-22T08:07:25.472Z,99.99
2023-02-22T08:08:25.494Z,99.99
2023-02-22T08:09:25.411Z,99.99
2023-02-22T08:10:25.438Z,99.99
2023-02-22T08:11:25.374Z,99.99
2023-02-22T08:12:25.379Z,99.99
2023-02-22T08:13:25.499Z,99.99
2023-02-22T08:14:25.345Z,99.99
2023-02-22T08:15:25.346Z,99.99
2023-02-22T08:16:25.355Z,99.99
2023-02-22T08:17:25.300Z,99.99
2023-02-22T08:18:25.308Z,99.99
2023-02-22T08:19:25.304Z,99.99
2023-02-22T08:20:25.366Z,99.99
2023-02-22T08:21:25.238Z,99.99
2023-02-22T08:22:25.272Z,99.99
2023-02-22T08:23:25.294Z,99.99
2023-02-22T08:24:25.230Z,99.99
2023-02-22T08:25:25.240Z,99.99
2023-02-22T08:26:25.206Z,99.99
2023-02-22T08:27:25.178Z,99.99
2023-02-22T08:28:25.203Z,99.99
2023-02-22T08:29:25.136Z,99.99
2023-02-22T08:30:25.263Z,99.99
2023-02-22T08:31:25.291Z,99.99
2023-02-22T08:32:25.288Z,99.99
2023-02-22T08:33:25.199Z,99.99
2023-02-22T08:34:25.122Z,99.99
2023-02-22T08:35:25.053Z,99.99
2023-02-22T08:36:25.103Z,99.99
2023-02-22T08:37:25.149Z,99.99
2023-02-22T08:38:25.040Z,99.99
2023-02-22T08:39:25.022Z,99.99
2023-02-22T08:40:25.070Z,99.99
2023-02-22T08:41:24.969Z,99.99
2023-02-22T08:42:25.011Z,99.99
2023-02-22T08:43:25.004Z,99.99
2023-02-22T08:44:24.974Z,99.99
2023-02-22T08:45:24.930Z,99.99
2023-02-22T08:46:24.931Z,99.99
2023-02-22T08:47:24.913Z,99.99
2023-02-22T08:48:24.930Z,99.99
2023-02-22T08:49:24.909Z,99.99
2023-02-22T08:50:24.894Z,99.79
2023-02-22T08:51:26.277Z,99.13
2023-02-22T08:52:24.869Z,98.93
2023-02-22T08:53:24.808Z,98.52
2023-02-22T08:54:24.838Z,98.42
2023-02-22T08:55:24.815Z,98.52
2023-02-22T08:56:24.797Z,98.16
2023-02-22T08:57:24.782Z,98.00
2023-02-22T08:58:24.778Z,98.00
2023-02-22T08:59:24.759Z,98.00
2023-02-22T09:00:24.790Z,98.11
2023-02-22T09:01:32.728Z,98.27
2023-02-22T09:02:25.789Z,98.47
2023-02-22T09:03:24.788Z,98.37
2023-02-22T09:04:24.684Z,98.47
2023-02-22T09:05:24.680Z,98.47
2023-02-22T09:06:24.660Z,98.63
2023-02-22T09:07:24.754Z,98.12
2023-02-22T09:08:24.667Z,98.53
2023-02-22T09:09:24.586Z,98.12
2023-02-22T09:10:24.642Z,98.33
2023-02-22T09:11:24.567Z,98.53
2023-02-22T09:12:24.604Z,98.22
2023-02-22T09:13:24.685Z,98.22
2023-02-22T09:14:24.540Z,98.12
2023-02-22T09:15:24.529Z,98.12
2023-02-22T09:16:24.585Z,97.61
2023-02-22T09:17:24.476Z,98.07
2023-02-22T09:18:25.604Z,97.56
2023-02-22T09:19:24.568Z,97.36
2023-02-22T09:20:24.469Z,97.62
2023-02-22T09:21:24.458Z,96.49
2023-02-22T09:22:24.467Z,96.23
2023-02-22T09:23:24.402Z,96.23
2023-02-22T09:24:24.414Z,96.33
2023-02-22T09:25:24.423Z,96.54
2023-02-22T09:26:24.397Z,97.15
2023-02-22T09:27:24.381Z,96.84
2023-02-22T09:28:24.384Z,96.80
2023-02-22T09:29:24.324Z,96.70
2023-02-22T09:30:24.620Z,96.39
2023-02-22T09:31:24.435Z,95.94
2023-02-22T09:32:24.540Z,96.14
2023-02-22T09:33:24.306Z,96.14
2023-02-22T09:34:24.274Z,95.53
2023-02-22T09:35:24.282Z,95.48
2023-02-22T09:36:26.159Z,96.00
2023-02-22T09:37:24.334Z,94.87
2023-02-22T09:38:24.232Z,94.97
2023-02-22T09:39:24.260Z,95.07
2023-02-22T09:40:24.223Z,94.97
2023-02-22T09:41:24.172Z,95.18
2023-02-22T09:42:24.194Z,94.36
2023-02-22T09:43:24.161Z,94.01
2023-02-22T09:44:24.165Z,94.42
2023-02-22T09:45:24.126Z,93.74
2023-02-22T09:46:24.131Z,94.42
2023-02-22T09:47:24.171Z,93.91
2023-02-22T09:48:24.178Z,94.11
2023-02-22T09:49:24.090Z,94.11
2023-02-22T09:50:24.098Z,94.73
2023-02-22T09:51:24.031Z,94.32
2023-02-22T09:52:24.057Z,94.52
2023-02-22T09:53:26.340Z,94.32
2023-02-22T09:54:24.063Z,93.91
2023-02-22T09:55:23.999Z,93.96
2023-02-22T09:56:23.981Z,94.17
2023-02-22T09:57:23.971Z,93.45
2023-02-22T09:58:23.957Z,93.21
2023-02-22T09:59:23.951Z,93.62
2023-02-22T10:00:23.952Z,93.00
2023-02-22T10:01:24.147Z,92.69
2023-02-22T10:02:23.926Z,92.04
2023-02-22T10:03:23.885Z,92.24
2023-02-22T10:04:23.911Z,93.06
2023-02-22T10:05:23.888Z,91.74
2023-02-22T10:06:23.848Z,91.02
2023-02-22T10:07:23.952Z,91.39
2023-02-22T10:08:23.846Z,91.18
2023-02-22T10:09:23.779Z,91.18
2023-02-22T10:10:23.825Z,90.83
2023-02-22T10:11:23.759Z,90.22
2023-02-22T10:12:23.775Z,90.53
2023-02-22T10:13:23.793Z,90.42
2023-02-22T10:14:23.752Z,90.32
2023-02-22T10:15:23.739Z,90.53
2023-02-22T10:16:23.777Z,90.73
2023-02-22T10:17:23.676Z,90.83
2023-02-22T10:18:23.739Z,90.69
2023-02-22T10:19:23.781Z,91.20
2023-02-22T10:20:23.682Z,89.97
2023-02-22T10:21:23.681Z,90.94
2023-02-22T10:22:23.645Z,90.42
2023-02-22T10:23:23.650Z,90.22
2023-02-22T10:24:23.658Z,90.53
2023-02-22T10:25:23.615Z,91.24
2023-02-22T10:26:23.596Z,91.14
2023-02-22T10:27:23.573Z,91.09
2023-02-22T10:28:23.584Z,90.18
2023-02-22T10:29:23.518Z,89.67
2023-02-22T10:30:25.248Z,89.47
2023-02-22T10:31:23.598Z,89.94
2023-02-22T10:32:23.548Z,89.16
2023-02-22T10:33:23.509Z,89.16
2023-02-22T10:34:23.544Z,90.03
2023-02-22T10:35:23.479Z,89.42
2023-02-22T10:36:23.509Z,88.36
2023-02-22T10:37:23.494Z,88.16
2023-02-22T10:38:23.536Z,87.55
2023-02-22T10:39:23.440Z,86.90
2023-02-22T10:40:23.440Z,87.51
2023-02-22T10:41:23.393Z,86.59
2023-02-22T10:42:23.402Z,86.69
2023-02-22T10:43:23.408Z,86.80
2023-02-22T10:44:23.357Z,86.08
2023-02-22T10:45:23.335Z,86.59
2023-02-22T10:46:23.341Z,86.83
2023-02-22T10:47:23.325Z,87.24
2023-02-22T10:48:23.335Z,87.45
2023-02-22T10:49:23.384Z,87.20
2023-02-22T10:50:23.319Z,86.86
2023-02-22T10:51:23.231Z,87.16
2023-02-22T10:52:23.263Z,85.70
2023-02-22T10:53:23.229Z,84.95
2023-02-22T10:54:23.215Z,84.34
2023-02-22T10:55:23.323Z,83.62
2023-02-22T10:56:23.234Z,84.34
2023-02-22T10:57:23.156Z,83.42
2023-02-22T10:58:23.171Z,83.79
2023-02-22T10:59:25.587Z,83.48
2023-02-22T11:00:23.187Z,84.16
2023-02-22T11:01:23.215Z,82.94
2023-02-22T11:02:23.162Z,83.45
2023-02-22T11:03:23.104Z,82.23
2023-02-22T11:04:23.102Z,82.64
2023-02-22T11:05:23.089Z,83.54
2023-02-22T11:06:23.095Z,82.84
2023-02-22T11:07:23.162Z,82.12
2023-02-22T11:08:23.069Z,83.34
2023-02-22T11:09:23.014Z,82.70
2023-02-22T11:10:23.057Z,83.20
2023-02-22T11:11:22.968Z,81.44
2023-02-22T11:12:23.012Z,81.13
2023-02-22T11:13:23.073Z,80.97
2023-02-22T11:14:22.968Z,81.07
2023-02-22T11:15:22.946Z,81.99
2023-02-22T11:16:23.002Z,82.29
2023-02-22T11:17:22.892Z,81.82
2023-02-22T11:18:22.948Z,82.23
2023-02-22T11:19:22.991Z,82.43
2023-02-22T11:20:22.874Z,83.14
2023-02-22T11:21:22.859Z,83.34
2023-02-22T11:22:22.852Z,82.98
2023-02-22T11:23:22.838Z,83.53
2023-02-22T11:24:22.842Z,83.62
2023-02-22T11:25:22.797Z,84.48
2023-02-22T11:26:22.810Z,85.29
2023-02-22T11:27:22.757Z,84.78
2023-02-22T11:28:22.783Z,85.80
2023-02-22T11:29:22.798Z,85.19
2023-02-22T11:30:22.813Z,86.10
2023-02-22T11:31:22.840Z,84.68
2023-02-22T11:32:22.765Z,83.60
2023-02-22T11:33:22.701Z,84.21
2023-02-22T11:34:22.678Z,84.42
2023-02-22T11:35:22.663Z,83.91
2023-02-22T11:36:22.681Z,83.60
2023-02-22T11:37:22.743Z,83.60
2023-02-22T11:38:22.662Z,84.52
2023-02-22T11:39:22.620Z,84.92
2023-02-22T11:40:22.654Z,84.21
2023-02-22T11:41:22.581Z,84.01
2023-02-22T11:42:22.582Z,85.13
2023-02-22T11:43:22.661Z,83.40
2023-02-22T11:44:22.962Z,84.31
2023-02-22T11:45:22.503Z,84.42
2023-02-22T11:46:22.933Z,84.42
2023-02-22T11:47:22.502Z,84.21
2023-02-22T11:48:22.523Z,85.29
2023-02-22T11:49:22.486Z,85.29
2023-02-22T11:50:22.501Z,86.00
2023-02-22T11:51:22.436Z,84.48
2023-02-22T11:52:22.469Z,82.81
2023-02-22T11:53:22.468Z,83.67
2023-02-22T11:54:22.430Z,84.68
2023-02-22T11:55:36.494Z,83.67
2023-02-22T11:56:36.796Z,83.15
2023-02-22T11:57:23.342Z,84.07
2023-02-22T11:58:22.374Z,84.78
2023-02-22T11:59:22.315Z,83.67
2023-02-22T12:00:22.453Z,83.56
2023-02-22T12:01:22.425Z,82.54
2023-02-22T12:02:22.326Z,82.85
2023-02-22T12:03:22.270Z,83.15
2023-02-22T12:04:22.314Z,83.67
2023-02-22T12:05:22.314Z,83.67
2023-02-22T12:06:22.244Z,82.95
2023-02-22T12:07:22.356Z,84.17
2023-02-22T12:08:22.267Z,83.93
2023-02-22T12:09:22.208Z,83.32
2023-02-22T12:10:22.241Z,82.81
2023-02-22T12:11:22.201Z,84.23
2023-02-22T12:12:22.202Z,84.34
2023-02-22T12:13:22.279Z,82.40
2023-02-22T12:14:22.155Z,84.23
2023-02-22T12:15:22.146Z,82.61
2023-02-22T12:16:22.221Z,83.42
2023-02-22T12:17:22.078Z,83.62
2023-02-22T12:18:22.130Z,84.64
2023-02-22T12:19:22.255Z,83.12
2023-02-22T12:20:22.098Z,83.42
2023-02-22T12:21:22.083Z,84.34
2023-02-22T12:22:22.003Z,83.01
2023-02-22T12:23:22.084Z,83.32
2023-02-22T12:24:22.014Z,83.53
2023-02-22T12:25:22.069Z,84.74
2023-02-22T12:26:22.000Z,83.01
2023-02-22T12:27:22.001Z,82.81
2023-02-22T12:28:24.946Z,83.83
2023-02-22T12:29:21.980Z,82.31
2023-02-22T12:30:21.918Z,82.78
2023-02-22T12:31:22.022Z,83.18
2023-02-22T12:32:22.000Z,82.57
2023-02-22T12:33:21.893Z,81.90
2023-02-22T12:34:21.920Z,81.59
2023-02-22T12:35:21.909Z,82.20
2023-02-22T12:36:21.862Z,82.20
2023-02-22T12:37:21.886Z,83.01
2023-02-22T12:38:21.824Z,82.67
2023-02-22T12:39:21.820Z,83.08
2023-02-22T12:40:21.815Z,84.20
2023-02-22T12:41:21.821Z,84.70
2023-02-22T12:42:21.780Z,81.66
2023-02-22T12:43:21.897Z,82.06
2023-02-22T12:44:21.749Z,82.37
2023-02-22T12:45:21.733Z,81.96
2023-02-22T12:46:21.790Z,81.15
2023-02-22T12:47:21.715Z,81.76
2023-02-22T12:48:21.666Z,82.26
2023-02-22T12:49:21.739Z,82.47
2023-02-22T12:50:21.697Z,81.96
2023-02-22T12:51:21.675Z,81.25
2023-02-22T12:52:22.248Z,82.57
2023-02-22T12:53:21.661Z,81.56